Time;durP1;ratioP1;P1;durP2;ratioP2;P2;SDS_P1;SDS_P2;PMS_P1;PMS_P2;Temp;Humidity;BMP_temperature;BMP_pressure;BME280_temperature;BME280_humidity;BME280_pressure;Samples;Min_cycle;Max_cycle;Signal;HPM_P1;HPM_P2
2023/04/17 00:01:48;;;;;;;11.70;6.90;;;;;;;15.19;62.06;98897.28;5091714;28;20020;-77
2023/04/17 00:04:14;;;;;;;10.35;6.65;;;;;;;15.50;62.02;98955.59;5091740;28;20027;-78
2023/04/17 00:06:43;;;;;;;11.02;6.88;;;;;;;15.51;62.02;98951.91;5092075;28;20018;-77
2023/04/17 00:09:09;;;;;;;9.00;7.20;;;;;;;15.14;62.26;98889.97;5091624;28;20021;-77
2023/04/17 00:11:34;;;;;;;9.98;6.82;;;;;;;15.17;61.82;98891.38;5091551;28;20019;-77
2023/04/17 00:14:00;;;;;;;13.25;7.57;;;;;;;15.39;62.08;98926.28;5091458;28;20073;-78
2023/04/17 00:16:26;;;;;;;10.23;6.85;;;;;;;15.43;62.26;98943.41;5091455;28;20024;-77
2023/04/17 00:18:52;;;;;;;9.13;7.00;;;;;;;15.17;62.25;98899.34;5091527;28;20027;-78
2023/04/17 00:21:18;;;;;;;8.15;6.97;;;;;;;14.80;62.38;98835.53;5090282;28;20416;-77
2023/04/17 00:23:44;;;;;;;10.90;6.10;;;;;;;15.42;62.10;98929.31;5090239;28;20020;-78
2023/04/17 00:26:10;;;;;;;9.75;5.97;;;;;;;15.50;62.02;98949.47;5090098;28;20039;-78
2023/04/17 00:28:35;;;;;;;10.00;6.60;;;;;;;15.00;62.06;98858.44;5091538;28;20021;-77
2023/04/17 00:31:01;;;;;;;8.00;6.47;;;;;;;15.46;62.23;98938.47;5091658;28;20039;-78
2023/04/17 00:33:26;;;;;;;7.88;6.05;;;;;;;14.98;62.06;98861.34;5091775;28;20047;-77
2023/04/17 00:35:51;;;;;;;9.35;6.55;;;;;;;15.42;62.28;98928.50;5090517;28;20031;-78
2023/04/17 00:38:17;;;;;;;9.32;6.07;;;;;;;15.21;62.00;98898.69;5091368;28;20432;-77
2023/04/17 00:40:44;;;;;;;11.07;6.55;;;;;;;15.47;61.98;98934.75;5091433;28;20036;-78
2023/04/17 00:43:09;;;;;;;8.20;6.57;;;;;;;15.44;62.21;98923.75;5090040;28;20031;-78
2023/04/17 00:45:35;;;;;;;9.18;6.80;;;;;;;15.41;61.89;98926.88;5091276;28;20413;-78
2023/04/17 00:48:03;;;;;;;10.55;6.65;;;;;;;15.06;61.92;98858.38;5091229;28;20028;-78
2023/04/17 00:50:29;;;;;;;12.23;8.40;;;;;;;15.22;61.79;98884.34;5093806;28;20039;-77
2023/04/17 00:52:55;;;;;;;13.80;8.43;;;;;;;15.53;61.87;98930.41;5095060;28;20024;-77
2023/04/17 00:55:21;;;;;;;11.05;8.05;;;;;;;15.52;61.34;98936.75;5095125;28;20077;-77
2023/04/17 00:57:48;;;;;;;10.73;7.55;;;;;;;15.49;61.80;98935.34;5095137;28;20018;-77
2023/04/17 01:00:15;;;;;;;14.80;8.13;;;;;;;15.50;61.86;98929.00;5095172;28;20085;-77
2023/04/17 01:02:41;;;;;;;8.32;6.35;;;;;;;15.51;61.89;98938.59;5094917;28;20030;-78
2023/04/17 01:05:07;;;;;;;8.75;6.53;;;;;;;15.15;61.80;98870.31;5094908;28;20020;-77
2023/04/17 01:07:32;;;;;;;12.40;7.90;;;;;;;15.31;62.14;98887.50;5093553;28;20031;-78
2023/04/17 01:09:58;;;;;;;7.88;6.38;;;;;;;15.13;62.06;98859.09;5094819;28;20056;-77
2023/04/17 01:12:25;;;;;;;10.35;8.10;;;;;;;15.41;62.08;98908.25;5094736;28;20023;-77
2023/04/17 01:14:54;;;;;;;10.68;7.80;;;;;;;15.21;62.08;98874.75;5094785;28;20081;-77
2023/04/17 01:17:20;;;;;;;9.57;7.70;;;;;;;15.53;61.60;98938.38;5095127;28;20028;-77
2023/04/17 01:19:47;;;;;;;11.80;7.97;;;;;;;15.11;61.66;98884.28;5094841;28;20016;-77
2023/04/17 01:22:13;;;;;;;10.18;7.47;;;;;;;15.42;61.38;98947.13;5093357;28;20453;-77
2023/04/17 01:24:38;;;;;;;9.35;7.43;;;;;;;15.31;61.62;98963.81;5094698;28;20119;-77
2023/04/17 01:27:05;;;;;;;10.68;7.75;;;;;;;15.28;61.99;98970.41;5094563;28;20425;-78
2023/04/17 01:29:31;;;;;;;13.45;8.10;;;;;;;14.87;61.95;98917.88;5094820;28;20023;-77
2023/04/17 01:31:56;;;;;;;12.70;7.28;;;;;;;14.82;62.57;98889.28;5094908;28;20027;-76
2023/04/17 01:34:21;;;;;;;11.82;8.82;;;;;;;15.29;63.12;98936.63;5093341;28;20066;-76
2023/04/17 01:36:47;;;;;;;13.07;8.23;;;;;;;15.24;63.79;98922.16;5093214;28;20404;-75
2023/04/17 01:39:12;;;;;;;14.30;8.30;;;;;;;15.09;64.10;98889.81;5094515;28;20062;-76
2023/04/17 01:41:38;;;;;;;15.45;9.18;;;;;;;14.72;64.60;98840.34;5094446;28;20061;-75
2023/04/17 01:44:03;;;;;;;15.85;9.60;;;;;;;15.15;64.73;98918.19;5094320;28;20108;-75
2023/04/17 01:46:28;;;;;;;13.80;8.20;;;;;;;14.99;64.41;98904.69;5094371;28;20020;-76
2023/04/17 01:48:54;;;;;;;12.68;8.77;;;;;;;15.06;64.79;98913.38;5094268;28;20512;-76
2023/04/17 01:51:20;;;;;;;15.13;9.75;;;;;;;15.15;65.25;98893.44;5092748;28;20031;-76
2023/04/17 01:53:45;;;;;;;12.65;9.27;;;;;;;14.68;65.59;98812.59;5092670;28;20101;-76
2023/04/17 01:56:12;;;;;;;13.75;8.68;;;;;;;14.72;65.75;98832.38;5093960;28;20024;-76
2023/04/17 01:58:38;;;;;;;13.75;8.63;;;;;;;14.68;65.90;98850.59;5092663;28;20016;-75
2023/04/17 02:01:03;;;;;;;12.55;8.32;;;;;;;14.87;66.47;98880.69;5093368;28;20073;-76
2023/04/17 02:03:30;;;;;;;13.85;9.05;;;;;;;14.75;66.47;98866.47;5094047;28;20024;-76
2023/04/17 02:05:55;;;;;;;15.13;8.80;;;;;;;14.93;66.55;98885.09;5092591;28;20013;-76
2023/04/17 02:08:21;;;;;;;15.57;9.35;;;;;;;14.26;66.71;98783.19;5093966;28;20049;-76
2023/04/17 02:10:46;;;;;;;13.75;8.95;;;;;;;14.89;66.65;98883.94;5093855;28;20073;-76
2023/04/17 02:13:11;;;;;;;14.55;8.50;;;;;;;14.25;66.96;98784.22;5093717;28;20588;-76
2023/04/17 02:15:37;;;;;;;14.18;9.40;;;;;;;14.84;67.23;98879.25;5093573;28;20016;-77
2023/04/17 02:18:04;;;;;;;17.75;9.40;;;;;;;14.62;67.09;98856.81;5093596;28;20424;-77
2023/04/17 02:20:30;;;;;;;11.30;8.10;;;;;;;14.87;66.85;98897.44;5092374;28;20031;-77
2023/04/17 02:22:56;;;;;;;11.52;8.73;;;;;;;14.56;66.85;98860.34;5093480;28;20024;-76
2023/04/17 02:25:21;;;;;;;10.63;8.45;;;;;;;14.47;67.00;98832.44;5093318;28;20083;-77
2023/04/17 02:27:46;;;;;;;16.65;9.10;;;;;;;14.93;67.36;98907.19;5093526;28;20022;-74
2023/04/17 02:30:12;;;;;;;14.00;9.13;;;;;;;14.52;67.28;98835.25;5093508;28;20550;-78
2023/04/17 02:32:37;;;;;;;15.23;9.60;;;;;;;14.32;67.38;98795.59;5093624;28;20428;-77
2023/04/17 02:35:03;;;;;;;11.45;8.63;;;;;;;14.91;67.36;98880.00;5093441;28;20020;-77
2023/04/17 02:37:29;;;;;;;15.00;9.52;;;;;;;14.57;67.60;98817.63;5093238;28;20103;-77
2023/04/17 02:39:54;;;;;;;12.98;9.25;;;;;;;14.99;67.42;98875.44;5093476;28;20031;-77
2023/04/17 02:42:20;;;;;;;11.68;8.70;;;;;;;14.95;67.77;98872.41;5093631;28;20555;-74
2023/04/17 02:44:45;;;;;;;13.20;8.30;;;;;;;14.92;67.88;98876.31;5091802;28;20420;-77
2023/04/17 02:47:11;;;;;;;12.65;8.30;;;;;;;14.87;67.91;98876.19;5093236;28;20016;-77
2023/04/17 02:49:37;;;;;;;15.18;8.45;;;;;;;14.59;67.21;98836.81;5093137;28;20024;-76
2023/04/17 02:52:02;;;;;;;10.48;7.70;;;;;;;14.40;67.50;98815.75;5092808;28;20098;-77
2023/04/17 02:54:27;;;;;;;11.23;8.07;;;;;;;14.55;67.53;98840.13;5092731;28;20042;-76
2023/04/17 02:56:57;;;;;;;11.90;8.10;;;;;;;14.82;67.53;98888.47;5091652;28;20054;-77
2023/04/17 02:59:22;;;;;;;11.35;7.40;;;;;;;14.71;67.43;98882.06;5092948;28;20020;-77
2023/04/17 03:01:48;;;;;;;16.02;9.00;;;;;;;14.23;67.50;98816.31;5092820;28;20514;-77
2023/04/17 03:04:13;;;;;;;12.70;8.75;;;;;;;14.77;67.97;98898.97;5092731;28;20053;-78
2023/04/17 03:06:39;;;;;;;11.10;8.90;;;;;;;14.24;67.81;98812.63;5092730;28;20040;-76
2023/04/17 03:09:04;;;;;;;12.27;8.52;;;;;;;14.75;68.34;98888.53;5091286;28;20024;-77
2023/04/17 03:11:30;;;;;;;16.17;8.90;;;;;;;14.66;68.04;98879.25;5092437;28;20024;-74
2023/04/17 03:13:55;;;;;;;12.30;9.43;;;;;;;14.66;67.88;98887.22;5092058;28;20412;-76
2023/04/17 03:16:20;;;;;;;13.13;9.70;;;;;;;14.51;68.12;98861.00;5091298;28;20027;-78
2023/04/17 03:18:46;;;;;;;14.27;8.98;;;;;;;14.67;68.21;98882.72;5092831;28;20103;-76
2023/04/17 03:21:11;;;;;;;13.38;9.00;;;;;;;14.39;68.25;98841.47;5092478;28;20035;-77
2023/04/17 03:23:36;;;;;;;13.45;9.25;;;;;;;14.47;68.30;98848.38;5092225;28;20024;-77
2023/04/17 03:26:02;;;;;;;12.68;10.18;;;;;;;14.80;68.00;98903.84;5092056;28;20122;-78
2023/04/17 03:28:27;;;;;;;12.93;9.18;;;;;;;14.35;68.02;98836.84;5092349;28;20492;-77
2023/04/17 03:30:54;;;;;;;13.27;9.52;;;;;;;14.51;68.15;98866.31;5092214;28;20028;-77
2023/04/17 03:33:19;;;;;;;15.55;9.98;;;;;;;14.58;68.22;98872.38;5092244;28;20602;-78
2023/04/17 03:35:45;;;;;;;13.32;9.02;;;;;;;14.44;68.37;98852.28;5092077;28;20103;-76
2023/04/17 03:38:10;;;;;;;11.73;8.45;;;;;;;14.82;68.25;98907.88;5092058;28;20028;-77
2023/04/17 03:40:36;;;;;;;13.43;10.13;;;;;;;14.86;68.09;98906.44;5092003;28;20121;-76
2023/04/17 03:43:01;;;;;;;14.77;10.18;;;;;;;14.86;68.06;98913.56;5092048;28;20027;-77
2023/04/17 03:45:27;;;;;;;16.55;10.85;;;;;;;14.51;68.20;98861.00;5091958;28;20107;-75
2023/04/17 03:47:52;;;;;;;13.65;10.13;;;;;;;14.82;68.16;98901.75;5092142;28;20028;-77
2023/04/17 03:50:17;;;;;;;12.52;10.10;;;;;;;14.82;68.36;98909.75;5090775;28;20035;-76
2023/04/17 03:52:43;;;;;;;11.82;9.23;;;;;;;14.27;68.21;98829.97;5091870;28;20020;-76
2023/04/17 03:55:09;;;;;;;13.05;9.60;;;;;;;14.86;68.49;98930.38;5091770;28;20607;-76
2023/04/17 03:57:35;;;;;;;13.23;9.88;;;;;;;14.69;68.38;98907.22;5091935;28;20051;-76
2023/04/17 04:00:00;;;;;;;12.60;10.15;;;;;;;14.86;68.16;98933.03;5091779;28;20485;-77
2023/04/17 04:02:26;;;;;;;13.25;9.88;;;;;;;14.40;68.25;98856.38;5091848;28;20027;-76
2023/04/17 04:04:52;;;;;;;16.70;10.75;;;;;;;14.86;68.53;98921.56;5091808;28;20024;-77
2023/04/17 04:07:17;;;;;;;11.77;8.90;;;;;;;14.36;68.33;98841.91;5091606;28;20498;-76
2023/04/17 04:09:43;;;;;;;12.02;9.23;;;;;;;14.47;68.29;98859.81;5090268;28;20103;-76
2023/04/17 04:12:08;;;;;;;10.48;8.70;;;;;;;14.28;68.00;98831.59;5091618;28;20016;-76
2023/04/17 04:14:34;;;;;;;10.00;8.23;;;;;;;14.41;68.27;98842.06;5090196;28;20059;-77
2023/04/17 04:16:59;;;;;;;11.18;9.13;;;;;;;14.58;68.24;98860.94;5091456;28;20020;-76
2023/04/17 04:19:25;;;;;;;12.90;9.05;;;;;;;14.65;67.88;98861.69;5091770;28;20106;-76
2023/04/17 04:21:52;;;;;;;13.57;10.30;;;;;;;14.47;67.97;98832.44;5091849;28;20412;-77
2023/04/17 04:24:19;;;;;;;15.52;11.43;;;;;;;14.98;67.08;98903.06;5091421;28;20012;-76
2023/04/17 04:26:48;;;;;;;13.63;9.57;;;;;;;14.58;66.78;98868.91;5091309;28;20459;-76
2023/04/17 04:29:15;;;;;;;12.25;10.18;;;;;;;14.59;66.83;98895.25;5091352;28;20448;-77
2023/04/17 04:31:41;;;;;;;19.38;13.00;;;;;;;14.72;66.48;98918.22;5089977;28;20028;-76
2023/04/17 04:34:07;;;;;;;17.02;11.82;;;;;;;14.75;66.88;98949.66;5091465;28;20098;-77
2023/04/17 04:36:35;;;;;;;17.77;11.40;;;;;;;14.20;66.67;98837.19;5091345;28;20055;-77
2023/04/17 04:39:04;;;;;;;14.40;9.95;;;;;;;13.86;66.71;98782.75;5091446;28;20492;-76
2023/04/17 04:41:32;;;;;;;13.68;9.07;;;;;;;14.76;66.42;98926.56;5089940;28;20024;-76
2023/04/17 04:43:59;;;;;;;11.77;8.82;;;;;;;14.76;66.28;98921.25;5091032;28;20027;-76
2023/04/17 04:46:25;;;;;;;13.85;9.38;;;;;;;14.30;66.16;98864.84;5091267;28;20016;-76
2023/04/17 04:48:50;;;;;;;12.02;9.60;;;;;;;14.73;66.03;98930.47;5091341;28;20031;-76
2023/04/17 04:51:17;;;;;;;17.70;11.48;;;;;;;14.32;66.23;98864.63;5091400;28;20082;-76
2023/04/17 04:53:43;;;;;;;13.60;10.02;;;;;;;14.73;66.24;98930.47;5091269;28;20103;-75
2023/04/17 04:56:08;;;;;;;14.38;10.85;;;;;;;14.73;66.23;98934.97;5091107;28;20099;-76
2023/04/17 04:58:34;;;;;;;17.55;10.95;;;;;;;14.70;66.21;98944.19;5089907;28;20028;-76
2023/04/17 05:00:59;;;;;;;14.35;9.10;;;;;;;14.11;66.83;98859.69;5091352;28;20095;-76
2023/04/17 05:03:25;;;;;;;11.25;8.30;;;;;;;14.49;66.95;98926.00;5091177;28;20454;-75
2023/04/17 05:05:50;;;;;;;14.02;8.68;;;;;;;14.45;67.43;98917.66;5091150;28;20027;-77
2023/04/17 05:08:15;;;;;;;18.15;10.07;;;;;;;14.24;67.84;98886.16;5091187;28;20024;-76
2023/04/17 05:10:41;;;;;;;18.80;10.57;;;;;;;14.30;67.93;98910.00;5089650;28;20408;-77
2023/04/17 05:13:06;;;;;;;19.83;10.60;;;;;;;14.31;68.24;98919.59;5091022;28;20030;-76
2023/04/17 05:15:32;;;;;;;19.58;10.48;;;;;;;14.36;68.33;98939.38;5090962;28;20024;-75
2023/04/17 05:17:57;;;;;;;20.60;11.02;;;;;;;14.20;68.76;98925.59;5090874;28;20412;-76
2023/04/17 05:20:25;;;;;;;20.95;10.48;;;;;;;13.94;68.93;98892.09;5090838;28;20489;-77
2023/04/17 05:22:50;;;;;;;19.45;12.63;;;;;;;14.39;69.00;98954.88;5091030;28;20043;-76
2023/04/17 05:25:16;;;;;;;17.05;11.38;;;;;;;13.88;68.76;98884.16;5090773;28;20084;-76
2023/04/17 05:27:41;;;;;;;13.85;9.40;;;;;;;14.00;68.89;98933.69;5090808;28;20020;-75
2023/04/17 05:30:07;;;;;;;14.77;9.10;;;;;;;13.66;68.69;98889.00;5091065;28;20016;-77
2023/04/17 05:32:34;;;;;;;16.95;10.55;;;;;;;14.27;69.23;98958.22;5090873;28;20518;-75
2023/04/17 05:34:59;;;;;;;14.23;9.60;;;;;;;13.91;69.30;98897.81;5090865;28;20024;-76
2023/04/17 05:37:25;;;;;;;13.38;9.40;;;;;;;13.97;69.50;98899.63;5094439;28;20043;-75
2023/04/17 05:39:50;;;;;;;21.63;16.73;;;;;;;14.34;69.44;98963.50;5094489;28;20054;-76
2023/04/17 05:42:16;;;;;;;21.70;13.68;;;;;;;13.81;69.74;98878.91;5109939;28;20020;-76
2023/04/17 05:44:42;;;;;;;18.42;12.20;;;;;;;14.22;69.30;98952.75;5092948;28;20486;-76
2023/04/17 05:47:07;;;;;;;18.65;12.57;;;;;;;13.80;69.44;98897.69;5094141;28;20111;-76
2023/04/17 05:49:32;;;;;;;14.25;11.45;;;;;;;14.10;69.21;98943.00;5093166;28;20031;-76
2023/04/17 05:51:58;;;;;;;18.55;12.80;;;;;;;14.07;68.94;98932.81;5094179;28;20016;-76
2023/04/17 05:54:23;;;;;;;20.52;13.60;;;;;;;14.32;69.46;98974.31;5094071;28;20077;-76
2023/04/17 05:56:49;;;;;;;19.80;14.48;;;;;;;13.87;69.33;98887.84;5093926;28;20521;-76
2023/04/17 05:59:14;;;;;;;18.45;12.63;;;;;;;14.09;69.38;98917.50;5093907;28;20031;-77
2023/04/17 06:01:40;;;;;;;21.63;14.13;;;;;;;14.38;69.29;98955.91;5094211;28;20020;-77
2023/04/17 06:04:06;;;;;;;18.92;13.15;;;;;;;13.83;69.59;98876.84;5093935;28;20095;-75
2023/04/17 06:06:32;;;;;;;17.25;13.52;;;;;;;14.42;69.49;98988.97;5094012;28;20091;-76
2023/04/17 06:08:57;;;;;;;20.33;14.15;;;;;;;14.00;70.07;98968.19;5093696;28;20427;-76
2023/04/17 06:11:23;;;;;;;18.63;13.32;;;;;;;13.19;70.44;98845.19;5092445;28;20493;-76
2023/04/17 06:13:48;;;;;;;15.15;13.02;;;;;;;14.05;70.66;98961.44;5094002;28;20024;-76
2023/04/17 06:16:14;;;;;;;20.23;15.80;;;;;;;13.96;70.82;98943.09;5093740;28;20645;-75
2023/04/17 06:18:40;;;;;;;17.80;13.23;;;;;;;13.89;71.01;98941.53;5093658;28;20031;-76
2023/04/17 06:21:06;;;;;;;16.85;13.35;;;;;;;14.16;70.62;98979.34;5093555;28;20216;-76
2023/04/17 06:23:31;;;;;;;21.00;14.30;;;;;;;14.20;70.76;98986.66;5093843;28;20024;-76
2023/04/17 06:25:57;;;;;;;17.70;13.82;;;;;;;13.95;71.00;98953.94;5093479;28;20051;-77
2023/04/17 06:28:23;;;;;;;21.77;14.73;;;;;;;13.87;71.37;98947.03;5096096;28;20044;-76
2023/04/17 06:30:49;;;;;;;17.23;14.18;;;;;;;14.32;71.18;99016.00;5098574;28;20036;-77
2023/04/17 06:33:15;;;;;;;22.85;15.70;;;;;;;14.18;71.25;99012.63;5095167;28;20421;-76
2023/04/17 06:35:40;;;;;;;23.83;16.23;;;;;;;13.75;71.23;98954.06;5092979;28;20028;-76
2023/04/17 06:38:05;;;;;;;18.52;12.85;;;;;;;14.23;71.04;99027.91;5093250;28;20039;-76
2023/04/17 06:40:32;;;;;;;18.10;13.02;;;;;;;13.99;71.06;98989.63;5093418;28;20024;-76
2023/04/17 06:42:57;;;;;;;17.63;13.10;;;;;;;14.03;71.27;98984.72;5093271;28;20085;-76
2023/04/17 06:45:22;;;;;;;17.05;13.25;;;;;;;14.26;71.33;99011.56;5093251;28;20028;-76
2023/04/17 06:47:48;;;;;;;17.27;12.93;;;;;;;13.95;71.15;98964.56;5093014;28;20579;-76
2023/04/17 06:50:15;;;;;;;18.85;14.23;;;;;;;14.02;71.13;98969.81;5093019;28;20504;-76
2023/04/17 06:52:41;;;;;;;19.65;16.15;;;;;;;14.39;71.02;99027.38;5093131;28;20024;-76
2023/04/17 06:55:07;;;;;;;22.25;16.38;;;;;;;13.93;70.89;98950.69;5096552;28;20035;-76
2023/04/17 06:57:32;;;;;;;20.42;16.88;;;;;;;14.23;70.88;98993.41;5102784;28;20055;-77
2023/04/17 06:59:58;;;;;;;21.70;16.73;;;;;;;14.22;70.68;98983.81;5094413;28;20032;-76
2023/04/17 07:02:23;;;;;;;24.75;16.17;;;;;;;14.36;70.73;99011.06;5092955;28;20024;-76
2023/04/17 07:04:49;;;;;;;22.02;18.17;;;;;;;14.50;70.79;99024.06;5093155;28;20105;-76
2023/04/17 07:07:14;;;;;;;23.90;18.45;;;;;;;14.13;70.87;98963.84;5092685;28;20059;-76
2023/04/17 07:09:41;;;;;;;22.70;18.13;;;;;;;14.23;70.54;98959.69;5092562;28;20489;-77
2023/04/17 07:12:07;;;;;;;27.15;20.98;;;;;;;14.64;70.54;99024.78;5092598;28;20085;-75
2023/04/17 07:14:34;;;;;;;35.03;25.85;;;;;;;14.68;70.63;99025.97;5092710;28;20032;-77
2023/04/17 07:17:00;;;;;;;30.70;25.77;;;;;;;14.13;70.89;98940.78;5092401;28;20028;-75
2023/04/17 07:19:25;;;;;;;35.97;26.77;;;;;;;14.72;70.81;99015.72;5092526;28;20484;-75
2023/04/17 07:21:51;;;;;;;35.92;27.20;;;;;;;14.86;70.35;99023.41;5092374;28;20093;-76
2023/04/17 07:24:16;;;;;;;35.67;26.35;;;;;;;14.96;70.45;99030.06;5092233;28;20084;-76
2023/04/17 07:26:42;;;;;;;29.38;23.48;;;;;;;14.82;70.24;98998.25;5092411;28;20048;-76
2023/04/17 07:29:08;;;;;;;29.60;24.23;;;;;;;15.15;69.86;99021.88;5092274;28;20531;-76
2023/04/17 07:31:33;;;;;;;31.08;23.98;;;;;;;14.82;69.77;98961.03;5092546;28;20484;-75
2023/04/17 07:33:59;;;;;;;26.45;21.88;;;;;;;15.34;69.46;99030.69;5092140;28;20110;-76
2023/04/17 07:36:26;;;;;;;26.38;22.67;;;;;;;14.95;69.76;98946.84;5092090;28;20024;-76
2023/04/17 07:38:51;;;;;;;23.60;19.88;;;;;;;15.43;69.48;99001.94;5090781;28;20062;-76
2023/04/17 07:41:16;;;;;;;27.90;24.38;;;;;;;15.46;69.21;99006.81;5091992;28;20067;-76
2023/04/17 07:43:42;;;;;;;27.70;24.73;;;;;;;15.43;69.09;98988.66;5091895;28;20993;-76
2023/04/17 07:46:07;;;;;;;33.33;28.05;;;;;;;15.22;68.66;98968.63;5091869;28;20028;-77
2023/04/17 07:48:33;;;;;;;51.58;37.03;;;;;;;15.70;69.12;99032.59;5090833;28;20535;-76
2023/04/17 07:51:01;;;;;;;49.67;35.92;;;;;;;15.80;69.06;99024.06;5091983;28;20051;-76
2023/04/17 07:53:28;;;;;;;62.50;41.58;;;;;;;15.29;68.98;98947.28;5091825;28;20035;-77
2023/04/17 07:55:54;;;;;;;67.28;46.50;;;;;;;15.79;68.89;98993.97;5092098;28;20028;-76
2023/04/17 07:58:21;;;;;;;78.40;51.78;;;;;;;15.77;68.93;98974.75;5090046;28;20432;-76
2023/04/17 08:00:46;;;;;;;90.68;57.15;;;;;;;16.23;68.60;99042.53;5091760;28;20106;-77
2023/04/17 08:03:13;;;;;;;87.28;57.38;;;;;;;15.70;68.57;98966.03;5091604;28;20527;-77
2023/04/17 08:05:39;;;;;;;90.22;57.30;;;;;;;15.98;68.85;99010.72;5091571;28;20016;-77
2023/04/17 08:08:04;;;;;;;92.68;58.67;;;;;;;15.70;68.52;98943.94;5091917;28;20028;-77
2023/04/17 08:10:30;;;;;;;86.05;58.22;;;;;;;16.34;68.13;99039.09;5090382;28;20438;-76
2023/04/17 08:12:55;;;;;;;101.03;64.35;;;;;;;16.28;68.33;99007.22;5091420;28;20503;-76
2023/04/17 08:15:21;;;;;;;97.90;64.55;;;;;;;16.56;67.88;99030.59;5091149;28;20024;-78
2023/04/17 08:17:47;;;;;;;111.32;67.38;;;;;;;16.52;67.84;99003.59;5091470;28;20485;-76
2023/04/17 08:20:12;;;;;;;116.07;73.13;;;;;;;16.35;67.56;98973.28;5091646;28;20482;-76
2023/04/17 08:22:39;;;;;;;110.32;69.50;;;;;;;16.68;67.46;99034.13;5091365;28;20024;-77
2023/04/17 08:25:08;;;;;;;100.68;66.50;;;;;;;16.38;67.32;98959.53;5091312;28;20062;-76
2023/04/17 08:27:34;;;;;;;89.20;60.47;;;;;;;16.79;67.41;99010.13;5091286;28;20023;-76
2023/04/17 08:30:00;;;;;;;89.40;61.75;;;;;;;16.90;67.03;99031.72;5091217;28;20493;-76
2023/04/17 08:32:26;;;;;;;71.47;55.15;;;;;;;16.39;66.79;98953.19;5091332;28;20016;-76
2023/04/17 08:34:51;;;;;;;53.70;43.15;;;;;;;16.51;66.98;98948.66;5091590;28;20481;-75
2023/04/17 08:37:17;;;;;;;51.78;39.22;;;;;;;16.75;66.48;98989.50;5091372;28;20052;-76
2023/04/17 08:39:42;;;;;;;43.92;36.42;;;;;;;16.47;66.77;98943.00;5087272;28;20016;-76
2023/04/17 08:42:13;;;;;;;39.08;33.40;;;;;;;16.93;66.77;99007.25;5085246;28;20021;-74
2023/04/17 08:44:38;;;;;;;29.77;26.53;;;;;;;16.45;66.81;98928.28;5084832;28;20032;-75
2023/04/17 08:47:07;;;;;;;24.77;21.73;;;;;;;16.05;66.43;98867.63;5076046;28;20409;-78
2023/04/17 08:49:34;;;;;;;24.85;22.25;;;;;;;16.39;66.54;98930.00;5084654;28;20056;-78
2023/04/17 08:52:04;;;;;;;27.40;23.30;;;;;;;16.95;66.72;99011.31;5086772;28;20031;-76
2023/04/17 08:54:32;;;;;;;26.35;21.48;;;;;;;16.99;66.02;98999.13;5081211;28;20500;-76
2023/04/17 08:57:01;;;;;;;23.95;21.35;;;;;;;16.81;66.06;98962.72;5075977;28;20531;-75
2023/04/17 08:59:26;;;;;;;34.67;28.00;;;;;;;16.98;65.37;98964.69;5081429;28;20424;-74
2023/04/17 09:02:03;;;;;;;31.50;26.95;;;;;;;17.22;65.50;99010.84;5084489;28;20033;-78
2023/04/17 09:04:45;;;;;;;30.35;27.02;;;;;;;17.50;65.68;99020.78;5070662;28;20104;-74
2023/04/17 09:07:12;;;;;;;36.83;30.67;;;;;;;17.23;65.15;98965.25;5081979;28;20501;-77
2023/04/17 09:09:54;;;;;;;40.90;32.65;;;;;;;17.71;64.31;99030.84;5079137;28;20024;-75
2023/04/17 09:12:24;;;;;;;38.90;31.77;;;;;;;17.71;63.98;99028.19;5078105;28;20024;-77
2023/04/17 09:14:50;;;;;;;36.55;30.33;;;;;;;17.20;63.41;98943.56;5080132;28;20036;-74
2023/04/17 09:17:17;;;;;;;39.72;32.95;;;;;;;18.07;62.81;99035.03;5083989;28;20029;-76
2023/04/17 09:20:10;;;;;;;36.63;30.70;;;;;;;18.00;62.42;99026.38;5082003;28;20025;-76
2023/04/17 09:22:39;;;;;;;39.65;30.88;;;;;;;18.01;62.30;99030.66;5086684;28;20020;-76
2023/04/17 09:25:15;;;;;;;37.22;30.00;;;;;;;18.13;62.64;99038.63;5092094;28;20115;-77
2023/04/17 09:27:41;;;;;;;42.05;30.95;;;;;;;17.91;62.13;98990.41;5093312;28;20019;-77
2023/04/17 09:30:06;;;;;;;38.17;31.42;;;;;;;18.15;62.02;99017.81;5094708;28;20024;-77
2023/04/17 09:32:33;;;;;;;33.85;29.77;;;;;;;18.13;61.77;99018.06;5094511;28;20042;-77
2023/04/17 09:35:01;;;;;;;32.22;28.58;;;;;;;18.21;61.74;99022.19;5094531;28;20024;-76
2023/04/17 09:37:48;;;;;;;36.78;28.05;;;;;;;18.30;61.51;99026.09;5094395;28;20031;-77
2023/04/17 09:40:16;;;;;;;32.00;27.35;;;;;;;17.99;61.17;98977.47;5092952;28;20520;-77
2023/04/17 09:43:03;;;;;;;34.25;27.88;;;;;;;18.43;61.13;99023.94;5094425;28;20100;-76
2023/04/17 09:45:38;;;;;;;33.85;28.33;;;;;;;18.61;61.04;99030.97;5094265;28;20024;-76
2023/04/17 09:48:09;;;;;;;22.85;19.45;;;;;;;18.58;60.55;99027.91;5094100;28;20031;-76
2023/04/17 09:50:35;;;;;;;23.02;17.92;;;;;;;18.14;60.15;98947.53;5092662;28;20032;-78
2023/04/17 09:53:03;;;;;;;30.77;19.95;;;;;;;18.54;60.03;99018.75;5094086;28;20518;-77
2023/04/17 09:55:30;;;;;;;25.38;19.30;;;;;;;18.45;60.14;98983.59;5094098;28;20031;-75
2023/04/17 09:57:57;;;;;;;26.27;18.23;;;;;;;18.12;60.14;98930.13;5094023;28;20051;-77
2023/04/17 10:00:26;;;;;;;21.55;16.38;;;;;;;18.53;59.97;99009.94;5094062;28;20028;-77
2023/04/17 10:02:52;;;;;;;20.65;15.82;;;;;;;18.33;60.16;99002.38;5094000;28;20036;-77
2023/04/17 10:05:27;;;;;;;18.60;12.93;;;;;;;17.97;60.19;98976.09;5093708;28;20462;-77
2023/04/17 10:07:53;;;;;;;17.75;12.13;;;;;;;17.96;60.16;98985.16;5093864;28;20028;-76
2023/04/17 10:10:29;;;;;;;16.02;11.43;;;;;;;17.57;60.50;98970.75;5093887;28;20023;-77
2023/04/17 10:12:57;;;;;;;20.42;12.30;;;;;;;17.62;60.91;99010.88;5093801;28;20024;-77
2023/04/17 10:15:23;;;;;;;16.60;12.13;;;;;;;17.66;61.82;99042.25;5093600;28;20108;-76
2023/04/17 10:17:49;;;;;;;14.10;11.05;;;;;;;17.03;62.62;98983.47;5093716;28;20028;-76
2023/04/17 10:20:16;;;;;;;16.80;12.50;;;;;;;17.29;63.46;99048.88;5092474;28;20039;-76
2023/04/17 10:22:42;;;;;;;18.17;13.25;;;;;;;17.07;64.32;99048.63;5093203;28;20024;-76
2023/04/17 10:25:13;;;;;;;15.18;13.57;;;;;;;16.99;65.26;99044.47;5091900;28;20032;-76
2023/04/17 10:27:39;;;;;;;14.05;11.90;;;;;;;16.85;65.89;99037.72;5093384;28;20031;-75
2023/04/17 10:30:12;;;;;;;11.20;8.90;;;;;;;16.16;65.75;98943.28;5093405;28;20440;-76
2023/04/17 10:32:40;;;;;;;6.38;5.35;;;;;;;16.40;65.42;98976.94;5092058;28;20027;-75
2023/04/17 10:35:14;;;;;;;5.97;5.30;;;;;;;16.59;64.97;99001.63;5093166;28;20024;-76
2023/04/17 10:37:45;;;;;;;6.50;3.17;;;;;;;16.59;63.82;99012.28;5093299;28;20463;-77
2023/04/17 10:40:11;;;;;;;7.22;4.97;;;;;;;16.33;64.05;98962.06;5093297;28;20027;-76
2023/04/17 10:42:37;;;;;;;7.03;4.95;;;;;;;16.42;64.11;98958.03;5093188;28;20547;-75
2023/04/17 10:45:07;;;;;;;7.43;6.07;;;;;;;16.99;64.12;99022.31;5093167;28;20046;-76
2023/04/17 10:47:34;;;;;;;11.85;7.57;;;;;;;17.16;63.88;99023.25;5093093;28;20416;-76
2023/04/17 10:50:02;;;;;;;9.45;7.70;;;;;;;17.29;63.98;99022.22;5093135;28;20114;-77
2023/04/17 10:52:40;;;;;;;8.95;6.50;;;;;;;17.44;64.41;99035.88;5092970;28;20479;-77
2023/04/17 10:55:06;;;;;;;7.18;4.68;;;;;;;17.67;63.54;99030.50;5093008;28;20121;-76
2023/04/17 10:57:50;;;;;;;7.00;5.32;;;;;;;17.85;63.40;99042.09;5092794;28;20028;-76
2023/04/17 11:00:17;;;;;;;5.47;3.92;;;;;;;17.85;62.80;99039.44;5092752;28;20035;-76
2023/04/17 11:02:48;;;;;;;6.00;4.07;;;;;;;17.82;62.36;99047.88;5092684;28;20031;-76
2023/04/17 11:05:16;;;;;;;6.95;4.57;;;;;;;17.71;62.84;99029.00;5092572;28;20031;-76
2023/04/17 11:07:43;;;;;;;7.03;3.58;;;;;;;17.74;62.53;99031.19;5092614;28;20102;-76
2023/04/17 11:10:09;;;;;;;3.22;2.92;;;;;;;17.50;62.36;98986.06;5092712;28;20028;-76
2023/04/17 11:12:35;;;;;;;4.97;3.67;;;;;;;17.41;62.18;98983.78;5092755;28;20034;-75
2023/04/17 11:15:02;;;;;;;5.15;3.58;;;;;;;17.75;62.29;99019.47;5091389;28;20114;-76
2023/04/17 11:17:27;;;;;;;8.63;5.03;;;;;;;17.35;62.02;98950.03;5091255;28;20085;-76
2023/04/17 11:19:53;;;;;;;5.97;4.47;;;;;;;17.55;62.49;98987.00;5092635;28;20035;-75